Campinas, Brazil
Current Conditions -  °F | °C
As of 7:00 AM on Friday 24 Oct 2014 (Local Time) from SBKP Reporting Station
Clear Clear  
Wind Chill: 66°   Ceiling: Unl
Heat Index: 66°   Visibility: 6mi
Dew Point: 59°   Wind: 9mph
Humidity: 78%   Direction: 110°ESE
Pressure: 30.03"   Gusts: NA
Location:  22.91°S, 47.08°W
Report Text: SBKP 240900Z 11008KT 9000 NSC 19/15 Q1017
Loading
Personal Weather Stations






























Interactive Weather Map
Tropical Storm Tracking
New forecast layout! Learn more

10-Day Weather Forecast

Advertisements
Track Severe Weather on mobile